sensor_id;sensor_type;location;lat;lon;timestamp;P1;durP1;ratioP1;P2;durP2;ratioP2
1378;SDS011;683;48.738;9.226;2023-06-22T00:01:20;10.80;;;7.70;;
1378;SDS011;683;48.738;9.226;2023-06-22T00:03:49;8.67;;;7.97;;
1378;SDS011;683;48.738;9.226;2023-06-22T00:06:17;8.67;;;7.80;;
1378;SDS011;683;48.738;9.226;2023-06-22T00:08:44;9.13;;;8.43;;
1378;SDS011;683;48.738;9.226;2023-06-22T00:11:12;9.27;;;8.47;;
1378;SDS011;683;48.738;9.226;2023-06-22T00:13:39;8.70;;;7.97;;
1378;SDS011;683;48.738;9.226;2023-06-22T00:16:07;11.47;;;9.10;;
1378;SDS011;683;48.738;9.226;2023-06-22T00:18:34;9.37;;;8.47;;
1378;SDS011;683;48.738;9.226;2023-06-22T00:21:03;8.73;;;8.03;;
1378;SDS011;683;48.738;9.226;2023-06-22T00:23:31;8.60;;;7.83;;
1378;SDS011;683;48.738;9.226;2023-06-22T00:26:00;9.53;;;8.73;;
1378;SDS011;683;48.738;9.226;2023-06-22T00:28:27;9.33;;;8.43;;
1378;SDS011;683;48.738;9.226;2023-06-22T00:30:56;9.73;;;8.83;;
1378;SDS011;683;48.738;9.226;2023-06-22T00:33:25;9.13;;;8.20;;
1378;SDS011;683;48.738;9.226;2023-06-22T00:35:53;9.00;;;8.10;;
1378;SDS011;683;48.738;9.226;2023-06-22T00:38:22;9.00;;;8.10;;
1378;SDS011;683;48.738;9.226;2023-06-22T00:40:50;8.63;;;7.93;;
1378;SDS011;683;48.738;9.226;2023-06-22T00:43:17;10.13;;;9.13;;
1378;SDS011;683;48.738;9.226;2023-06-22T00:45:45;10.60;;;8.53;;
1378;SDS011;683;48.738;9.226;2023-06-22T00:48:12;10.93;;;9.10;;
1378;SDS011;683;48.738;9.226;2023-06-22T00:50:41;9.33;;;8.53;;
1378;SDS011;683;48.738;9.226;2023-06-22T00:53:09;8.73;;;8.03;;
1378;SDS011;683;48.738;9.226;2023-06-22T00:55:41;9.53;;;8.73;;
1378;SDS011;683;48.738;9.226;2023-06-22T00:58:11;9.17;;;8.27;;
1378;SDS011;683;48.738;9.226;2023-06-22T01:00:40;8.07;;;7.27;;
1378;SDS011;683;48.738;9.226;2023-06-22T01:03:08;9.00;;;8.20;;
1378;SDS011;683;48.738;9.226;2023-06-22T01:05:36;10.03;;;9.10;;
1378;SDS011;683;48.738;9.226;2023-06-22T01:08:07;11.50;;;7.97;;
1378;SDS011;683;48.738;9.226;2023-06-22T01:10:45;7.70;;;7.10;;
1378;SDS011;683;48.738;9.226;2023-06-22T01:13:19;8.93;;;8.13;;
1378;SDS011;683;48.738;9.226;2023-06-22T01:15:55;8.57;;;7.70;;
1378;SDS011;683;48.738;9.226;2023-06-22T01:18:27;7.77;;;7.07;;
1378;SDS011;683;48.738;9.226;2023-06-22T01:20:59;9.20;;;7.80;;
1378;SDS011;683;48.738;9.226;2023-06-22T01:23:37;7.10;;;6.40;;
1378;SDS011;683;48.738;9.226;2023-06-22T01:26:18;8.60;;;7.80;;
1378;SDS011;683;48.738;9.226;2023-06-22T01:28:54;6.80;;;6.20;;
1378;SDS011;683;48.738;9.226;2023-06-22T01:31:24;7.63;;;6.83;;
1378;SDS011;683;48.738;9.226;2023-06-22T01:33:56;7.67;;;6.97;;
1378;SDS011;683;48.738;9.226;2023-06-22T01:36:26;8.43;;;7.50;;
1378;SDS011;683;48.738;9.226;2023-06-22T01:38:53;7.90;;;7.20;;
1378;SDS011;683;48.738;9.226;2023-06-22T01:41:24;7.97;;;7.20;;
1378;SDS011;683;48.738;9.226;2023-06-22T01:43:53;9.07;;;7.83;;
1378;SDS011;683;48.738;9.226;2023-06-22T01:46:22;10.23;;;8.37;;
1378;SDS011;683;48.738;9.226;2023-06-22T01:48:51;8.10;;;7.20;;
1378;SDS011;683;48.738;9.226;2023-06-22T01:51:19;8.30;;;7.50;;
1378;SDS011;683;48.738;9.226;2023-06-22T01:53:47;10.97;;;7.63;;
1378;SDS011;683;48.738;9.226;2023-06-22T01:56:15;9.87;;;8.90;;
1378;SDS011;683;48.738;9.226;2023-06-22T01:58:48;14.70;;;9.97;;
1378;SDS011;683;48.738;9.226;2023-06-22T02:01:20;9.87;;;8.87;;
1378;SDS011;683;48.738;9.226;2023-06-22T02:03:56;9.10;;;8.30;;
1378;SDS011;683;48.738;9.226;2023-06-22T02:06:30;9.17;;;8.37;;
1378;SDS011;683;48.738;9.226;2023-06-22T02:09:01;8.67;;;7.80;;
1378;SDS011;683;48.738;9.226;2023-06-22T02:11:32;9.70;;;8.80;;
1378;SDS011;683;48.738;9.226;2023-06-22T02:14:01;11.20;;;10.20;;
1378;SDS011;683;48.738;9.226;2023-06-22T02:16:31;11.60;;;10.40;;
1378;SDS011;683;48.738;9.226;2023-06-22T02:19:00;10.90;;;9.90;;
1378;SDS011;683;48.738;9.226;2023-06-22T02:21:29;12.67;;;10.40;;
1378;SDS011;683;48.738;9.226;2023-06-22T02:23:58;10.93;;;9.97;;
1378;SDS011;683;48.738;9.226;2023-06-22T02:26:25;12.70;;;11.50;;
1378;SDS011;683;48.738;9.226;2023-06-22T02:28:54;12.03;;;10.93;;
1378;SDS011;683;48.738;9.226;2023-06-22T02:31:21;11.37;;;10.37;;
1378;SDS011;683;48.738;9.226;2023-06-22T02:33:57;10.53;;;9.63;;
1378;SDS011;683;48.738;9.226;2023-06-22T02:36:25;10.37;;;9.43;;
1378;SDS011;683;48.738;9.226;2023-06-22T02:38:56;12.23;;;11.13;;
1378;SDS011;683;48.738;9.226;2023-06-22T02:41:24;13.23;;;11.93;;
1378;SDS011;683;48.738;9.226;2023-06-22T02:43:52;12.87;;;10.67;;
1378;SDS011;683;48.738;9.226;2023-06-22T02:46:19;10.87;;;9.90;;
1378;SDS011;683;48.738;9.226;2023-06-22T02:48:48;11.67;;;10.50;;
1378;SDS011;683;48.738;9.226;2023-06-22T02:51:17;13.03;;;11.83;;
1378;SDS011;683;48.738;9.226;2023-06-22T02:53:45;11.03;;;9.93;;
1378;SDS011;683;48.738;9.226;2023-06-22T02:56:14;12.17;;;11.00;;
1378;SDS011;683;48.738;9.226;2023-06-22T02:58:43;14.77;;;10.87;;
1378;SDS011;683;48.738;9.226;2023-06-22T03:01:11;11.60;;;10.13;;
1378;SDS011;683;48.738;9.226;2023-06-22T03:03:40;10.77;;;9.83;;
1378;SDS011;683;48.738;9.226;2023-06-22T03:06:07;10.53;;;9.67;;
1378;SDS011;683;48.738;9.226;2023-06-22T03:08:40;9.97;;;9.10;;
1378;SDS011;683;48.738;9.226;2023-06-22T03:11:09;11.80;;;10.77;;
1378;SDS011;683;48.738;9.226;2023-06-22T03:13:37;12.23;;;11.03;;
1378;SDS011;683;48.738;9.226;2023-06-22T03:16:06;12.27;;;11.10;;
1378;SDS011;683;48.738;9.226;2023-06-22T03:18:33;10.80;;;9.70;;
1378;SDS011;683;48.738;9.226;2023-06-22T03:21:01;11.80;;;10.80;;
1378;SDS011;683;48.738;9.226;2023-06-22T03:23:29;11.87;;;10.63;;
1378;SDS011;683;48.738;9.226;2023-06-22T03:25:58;13.93;;;12.30;;
1378;SDS011;683;48.738;9.226;2023-06-22T03:28:25;12.50;;;11.40;;
1378;SDS011;683;48.738;9.226;2023-06-22T03:30:53;12.63;;;11.50;;
1378;SDS011;683;48.738;9.226;2023-06-22T03:33:22;11.63;;;10.37;;
1378;SDS011;683;48.738;9.226;2023-06-22T03:35:49;12.43;;;11.07;;
1378;SDS011;683;48.738;9.226;2023-06-22T03:38:17;12.57;;;11.37;;
1378;SDS011;683;48.738;9.226;2023-06-22T03:40:44;13.10;;;11.70;;
1378;SDS011;683;48.738;9.226;2023-06-22T03:43:14;14.30;;;13.00;;
1378;SDS011;683;48.738;9.226;2023-06-22T03:45:41;14.70;;;11.97;;
1378;SDS011;683;48.738;9.226;2023-06-22T03:48:11;11.00;;;10.10;;
1378;SDS011;683;48.738;9.226;2023-06-22T03:50:39;10.63;;;9.73;;
1378;SDS011;683;48.738;9.226;2023-06-22T03:53:06;13.43;;;10.67;;
1378;SDS011;683;48.738;9.226;2023-06-22T03:55:34;12.23;;;11.23;;
1378;SDS011;683;48.738;9.226;2023-06-22T03:58:01;12.20;;;11.00;;
1378;SDS011;683;48.738;9.226;2023-06-22T04:00:32;11.20;;;10.10;;
1378;SDS011;683;48.738;9.226;2023-06-22T04:02:59;11.30;;;10.30;;
1378;SDS011;683;48.738;9.226;2023-06-22T04:05:27;15.40;;;10.27;;
1378;SDS011;683;48.738;9.226;2023-06-22T04:07:54;11.50;;;10.37;;
1378;SDS011;683;48.738;9.226;2023-06-22T04:10:22;10.30;;;9.40;;
1378;SDS011;683;48.738;9.226;2023-06-22T04:12:49;10.13;;;9.30;;
1378;SDS011;683;48.738;9.226;2023-06-22T04:15:17;10.07;;;9.17;;
1378;SDS011;683;48.738;9.226;2023-06-22T04:17:46;11.13;;;10.13;;
1378;SDS011;683;48.738;9.226;2023-06-22T04:20:13;9.93;;;9.13;;
1378;SDS011;683;48.738;9.226;2023-06-22T04:22:41;10.33;;;9.23;;
1378;SDS011;683;48.738;9.226;2023-06-22T04:25:08;10.20;;;9.30;;
1378;SDS011;683;48.738;9.226;2023-06-22T04:27:36;10.63;;;9.60;;
1378;SDS011;683;48.738;9.226;2023-06-22T04:30:06;8.97;;;8.23;;
1378;SDS011;683;48.738;9.226;2023-06-22T04:32:34;11.00;;;9.90;;
1378;SDS011;683;48.738;9.226;2023-06-22T04:35:04;9.27;;;8.40;;
1378;SDS011;683;48.738;9.226;2023-06-22T04:37:32;10.23;;;9.20;;
1378;SDS011;683;48.738;9.226;2023-06-22T04:39:59;11.50;;;10.27;;
1378;SDS011;683;48.738;9.226;2023-06-22T04:42:29;9.90;;;8.90;;
1378;SDS011;683;48.738;9.226;2023-06-22T04:44:57;11.03;;;10.03;;
1378;SDS011;683;48.738;9.226;2023-06-22T04:47:25;13.40;;;10.20;;
1378;SDS011;683;48.738;9.226;2023-06-22T04:49:52;11.43;;;10.30;;
1378;SDS011;683;48.738;9.226;2023-06-22T04:52:21;10.60;;;9.73;;
1378;SDS011;683;48.738;9.226;2023-06-22T04:54:50;10.00;;;9.00;;
1378;SDS011;683;48.738;9.226;2023-06-22T04:57:21;10.83;;;9.93;;
1378;SDS011;683;48.738;9.226;2023-06-22T04:59:58;11.53;;;10.43;;
1378;SDS011;683;48.738;9.226;2023-06-22T05:02:36;11.10;;;10.00;;
1378;SDS011;683;48.738;9.226;2023-06-22T05:05:04;10.53;;;9.60;;
1378;SDS011;683;48.738;9.226;2023-06-22T05:07:34;11.50;;;8.83;;
1378;SDS011;683;48.738;9.226;2023-06-22T05:10:02;10.83;;;9.13;;
1378;SDS011;683;48.738;9.226;2023-06-22T05:12:30;11.90;;;10.77;;
1378;SDS011;683;48.738;9.226;2023-06-22T05:14:57;10.80;;;9.70;;
1378;SDS011;683;48.738;9.226;2023-06-22T05:17:25;8.33;;;7.63;;
1378;SDS011;683;48.738;9.226;2023-06-22T05:19:53;8.27;;;7.47;;
1378;SDS011;683;48.738;9.226;2023-06-22T05:22:20;9.33;;;8.53;;
1378;SDS011;683;48.738;9.226;2023-06-22T05:24:49;12.73;;;8.40;;
1378;SDS011;683;48.738;9.226;2023-06-22T05:27:16;8.13;;;7.30;;
1378;SDS011;683;48.738;9.226;2023-06-22T05:29:44;8.50;;;7.70;;
1378;SDS011;683;48.738;9.226;2023-06-22T05:32:11;12.20;;;9.13;;
1378;SDS011;683;48.738;9.226;2023-06-22T05:34:39;7.60;;;7.00;;
1378;SDS011;683;48.738;9.226;2023-06-22T05:37:06;8.83;;;8.07;;
1378;SDS011;683;48.738;9.226;2023-06-22T05:39:35;8.63;;;7.73;;
1378;SDS011;683;48.738;9.226;2023-06-22T05:42:06;9.03;;;7.33;;
1378;SDS011;683;48.738;9.226;2023-06-22T05:44:34;10.03;;;8.90;;
1378;SDS011;683;48.738;9.226;2023-06-22T05:47:03;8.70;;;8.00;;
1378;SDS011;683;48.738;9.226;2023-06-22T05:49:30;8.13;;;7.47;;
1378;SDS011;683;48.738;9.226;2023-06-22T05:51:58;15.07;;;10.20;;
1378;SDS011;683;48.738;9.226;2023-06-22T05:54:27;12.03;;;10.43;;
1378;SDS011;683;48.738;9.226;2023-06-22T05:56:54;11.17;;;9.83;;
1378;SDS011;683;48.738;9.226;2023-06-22T05:59:23;9.00;;;8.10;;
1378;SDS011;683;48.738;9.226;2023-06-22T06:01:50;10.37;;;8.50;;
1378;SDS011;683;48.738;9.226;2023-06-22T06:04:18;8.90;;;7.63;;
1378;SDS011;683;48.738;9.226;2023-06-22T06:06:46;9.40;;;8.10;;
1378;SDS011;683;48.738;9.226;2023-06-22T06:09:13;9.10;;;8.20;;
1378;SDS011;683;48.738;9.226;2023-06-22T06:11:41;9.07;;;8.23;;
1378;SDS011;683;48.738;9.226;2023-06-22T06:14:08;10.00;;;7.80;;
1378;SDS011;683;48.738;9.226;2023-06-22T06:16:37;11.00;;;8.87;;
1378;SDS011;683;48.738;9.226;2023-06-22T06:19:05;9.23;;;8.37;;
1378;SDS011;683;48.738;9.226;2023-06-22T06:21:32;12.20;;;8.20;;
1378;SDS011;683;48.738;9.226;2023-06-22T06:24:00;8.97;;;8.17;;
1378;SDS011;683;48.738;9.226;2023-06-22T06:26:27;8.10;;;7.40;;
1378;SDS011;683;48.738;9.226;2023-06-22T06:28:59;8.10;;;7.30;;
1378;SDS011;683;48.738;9.226;2023-06-22T06:31:27;9.87;;;8.97;;
1378;SDS011;683;48.738;9.226;2023-06-22T06:33:57;9.70;;;7.47;;
1378;SDS011;683;48.738;9.226;2023-06-22T06:36:24;12.60;;;8.53;;
1378;SDS011;683;48.738;9.226;2023-06-22T06:38:52;10.97;;;8.10;;
1378;SDS011;683;48.738;9.226;2023-06-22T06:41:19;8.60;;;7.80;;
1378;SDS011;683;48.738;9.226;2023-06-22T06:43:48;11.37;;;7.73;;
1378;SDS011;683;48.738;9.226;2023-06-22T06:46:16;9.57;;;7.67;;
1378;SDS011;683;48.738;9.226;2023-06-22T06:48:44;9.30;;;7.47;;
1378;SDS011;683;48.738;9.226;2023-06-22T06:51:13;12.67;;;6.70;;
1378;SDS011;683;48.738;9.226;2023-06-22T06:53:41;8.27;;;6.93;;
1378;SDS011;683;48.738;9.226;2023-06-22T06:56:08;8.67;;;6.43;;
1378;SDS011;683;48.738;9.226;2023-06-22T06:58:36;6.97;;;5.93;;
1378;SDS011;683;48.738;9.226;2023-06-22T07:01:03;9.23;;;6.70;;
1378;SDS011;683;48.738;9.226;2023-06-22T07:03:32;7.57;;;6.60;;
1378;SDS011;683;48.738;9.226;2023-06-22T07:05:59;10.90;;;6.13;;
1378;SDS011;683;48.738;9.226;2023-06-22T07:08:28;8.40;;;6.43;;
1378;SDS011;683;48.738;9.226;2023-06-22T07:10:56;9.53;;;6.80;;
1378;SDS011;683;48.738;9.226;2023-06-22T07:13:24;10.57;;;7.17;;
1378;SDS011;683;48.738;9.226;2023-06-22T07:15:51;8.20;;;5.90;;
1378;SDS011;683;48.738;9.226;2023-06-22T07:18:19;7.53;;;6.70;;
1378;SDS011;683;48.738;9.226;2023-06-22T07:20:46;8.40;;;7.03;;
1378;SDS011;683;48.738;9.226;2023-06-22T07:23:14;8.57;;;6.60;;
1378;SDS011;683;48.738;9.226;2023-06-22T07:25:43;11.40;;;6.37;;
1378;SDS011;683;48.738;9.226;2023-06-22T07:28:10;9.20;;;6.23;;
1378;SDS011;683;48.738;9.226;2023-06-22T07:30:38;6.67;;;5.60;;
1378;SDS011;683;48.738;9.226;2023-06-22T07:33:05;9.93;;;6.53;;
1378;SDS011;683;48.738;9.226;2023-06-22T07:35:33;8.43;;;6.50;;
1378;SDS011;683;48.738;9.226;2023-06-22T07:38:01;7.70;;;6.57;;
1378;SDS011;683;48.738;9.226;2023-06-22T07:40:29;8.87;;;6.57;;
1378;SDS011;683;48.738;9.226;2023-06-22T07:42:58;5.77;;;5.27;;
1378;SDS011;683;48.738;9.226;2023-06-22T07:45:25;7.77;;;5.70;;
1378;SDS011;683;48.738;9.226;2023-06-22T07:47:53;8.03;;;6.50;;
1378;SDS011;683;48.738;9.226;2023-06-22T07:50:20;8.70;;;6.27;;
1378;SDS011;683;48.738;9.226;2023-06-22T07:52:48;8.23;;;5.70;;
1378;SDS011;683;48.738;9.226;2023-06-22T07:55:18;8.10;;;5.33;;
1378;SDS011;683;48.738;9.226;2023-06-22T07:57:48;9.33;;;6.13;;
1378;SDS011;683;48.738;9.226;2023-06-22T08:00:19;6.77;;;6.07;;
1378;SDS011;683;48.738;9.226;2023-06-22T08:02:46;7.73;;;5.83;;
1378;SDS011;683;48.738;9.226;2023-06-22T08:05:14;6.67;;;5.80;;
1378;SDS011;683;48.738;9.226;2023-06-22T08:07:43;6.77;;;6.07;;
1378;SDS011;683;48.738;9.226;2023-06-22T08:10:10;6.97;;;5.80;;
1378;SDS011;683;48.738;9.226;2023-06-22T08:12:38;7.87;;;5.83;;
1378;SDS011;683;48.738;9.226;2023-06-22T08:15:06;10.43;;;6.57;;
1378;SDS011;683;48.738;9.226;2023-06-22T08:17:37;11.07;;;5.73;;
1378;SDS011;683;48.738;9.226;2023-06-22T08:20:05;11.20;;;5.57;;
1378;SDS011;683;48.738;9.226;2023-06-22T08:22:36;19.10;;;6.73;;
1378;SDS011;683;48.738;9.226;2023-06-22T08:25:04;13.77;;;5.90;;
1378;SDS011;683;48.738;9.226;2023-06-22T08:27:33;7.87;;;6.10;;
1378;SDS011;683;48.738;9.226;2023-06-22T08:30:01;8.47;;;6.63;;
1378;SDS011;683;48.738;9.226;2023-06-22T08:32:29;7.43;;;6.73;;
1378;SDS011;683;48.738;9.226;2023-06-22T08:34:59;9.37;;;6.30;;
1378;SDS011;683;48.738;9.226;2023-06-22T08:37:28;10.53;;;6.90;;
1378;SDS011;683;48.738;9.226;2023-06-22T08:39:57;7.87;;;6.80;;
1378;SDS011;683;48.738;9.226;2023-06-22T08:42:25;10.77;;;7.80;;
1378;SDS011;683;48.738;9.226;2023-06-22T08:44:53;10.57;;;7.53;;
1378;SDS011;683;48.738;9.226;2023-06-22T08:47:20;12.50;;;6.73;;
1378;SDS011;683;48.738;9.226;2023-06-22T08:49:48;7.30;;;6.33;;
1378;SDS011;683;48.738;9.226;2023-06-22T08:52:17;7.80;;;7.07;;
1378;SDS011;683;48.738;9.226;2023-06-22T08:54:45;8.80;;;6.30;;
1378;SDS011;683;48.738;9.226;2023-06-22T08:57:13;10.53;;;7.57;;
1378;SDS011;683;48.738;9.226;2023-06-22T08:59:40;10.63;;;7.43;;
1378;SDS011;683;48.738;9.226;2023-06-22T09:02:08;11.20;;;6.13;;
1378;SDS011;683;48.738;9.226;2023-06-22T09:04:35;12.03;;;6.90;;
1378;SDS011;683;48.738;9.226;2023-06-22T09:07:03;11.83;;;7.53;;
1378;SDS011;683;48.738;9.226;2023-06-22T09:09:32;10.37;;;6.80;;
1378;SDS011;683;48.738;9.226;2023-06-22T09:12:00;8.03;;;6.20;;
1378;SDS011;683;48.738;9.226;2023-06-22T09:14:28;10.97;;;7.27;;
1378;SDS011;683;48.738;9.226;2023-06-22T09:16:55;9.90;;;7.77;;
1378;SDS011;683;48.738;9.226;2023-06-22T09:19:23;8.93;;;6.97;;
1378;SDS011;683;48.738;9.226;2023-06-22T09:21:51;8.27;;;6.77;;
1378;SDS011;683;48.738;9.226;2023-06-22T09:24:18;7.93;;;6.93;;
1378;SDS011;683;48.738;9.226;2023-06-22T09:26:48;9.73;;;7.57;;
1378;SDS011;683;48.738;9.226;2023-06-22T09:29:16;9.53;;;7.57;;
1378;SDS011;683;48.738;9.226;2023-06-22T09:31:43;14.80;;;7.50;;
1378;SDS011;683;48.738;9.226;2023-06-22T09:34:11;9.03;;;7.67;;
1378;SDS011;683;48.738;9.226;2023-06-22T09:36:38;9.03;;;7.67;;
1378;SDS011;683;48.738;9.226;2023-06-22T09:39:07;9.03;;;7.50;;
1378;SDS011;683;48.738;9.226;2023-06-22T09:41:35;10.10;;;7.87;;
1378;SDS011;683;48.738;9.226;2023-06-22T09:44:04;12.00;;;7.67;;
1378;SDS011;683;48.738;9.226;2023-06-22T09:46:31;9.50;;;7.20;;
1378;SDS011;683;48.738;9.226;2023-06-22T09:49:00;7.33;;;6.40;;
1378;SDS011;683;48.738;9.226;2023-06-22T09:51:28;8.77;;;7.87;;
1378;SDS011;683;48.738;9.226;2023-06-22T09:53:55;8.17;;;6.50;;
1378;SDS011;683;48.738;9.226;2023-06-22T09:56:23;11.73;;;7.23;;
1378;SDS011;683;48.738;9.226;2023-06-22T09:58:53;8.17;;;7.20;;
1378;SDS011;683;48.738;9.226;2023-06-22T10:01:22;10.67;;;6.97;;
1378;SDS011;683;48.738;9.226;2023-06-22T10:03:51;8.57;;;7.53;;
1378;SDS011;683;48.738;9.226;2023-06-22T10:06:21;8.80;;;7.80;;
1378;SDS011;683;48.738;9.226;2023-06-22T10:08:50;9.47;;;7.87;;
1378;SDS011;683;48.738;9.226;2023-06-22T10:11:18;9.17;;;7.60;;
1378;SDS011;683;48.738;9.226;2023-06-22T10:13:45;9.73;;;8.03;;
1378;SDS011;683;48.738;9.226;2023-06-22T10:16:13;9.23;;;7.60;;
1378;SDS011;683;48.738;9.226;2023-06-22T10:18:42;9.40;;;6.77;;
1378;SDS011;683;48.738;9.226;2023-06-22T10:21:10;8.30;;;7.50;;
1378;SDS011;683;48.738;9.226;2023-06-22T10:23:37;9.10;;;7.40;;
1378;SDS011;683;48.738;9.226;2023-06-22T10:26:05;9.93;;;7.40;;
1378;SDS011;683;48.738;9.226;2023-06-22T10:28:32;8.10;;;6.80;;
1378;SDS011;683;48.738;9.226;2023-06-22T10:31:00;12.80;;;7.40;;
1378;SDS011;683;48.738;9.226;2023-06-22T10:33:27;13.50;;;7.57;;
1378;SDS011;683;48.738;9.226;2023-06-22T10:35:56;10.23;;;7.20;;
1378;SDS011;683;48.738;9.226;2023-06-22T10:38:24;8.03;;;7.23;;
1378;SDS011;683;48.738;9.226;2023-06-22T10:40:51;8.90;;;7.27;;
1378;SDS011;683;48.738;9.226;2023-06-22T10:43:19;9.37;;;7.63;;
1378;SDS011;683;48.738;9.226;2023-06-22T10:45:46;11.17;;;7.17;;
1378;SDS011;683;48.738;9.226;2023-06-22T10:48:14;12.37;;;8.07;;
1378;SDS011;683;48.738;9.226;2023-06-22T10:50:41;14.43;;;7.27;;
1378;SDS011;683;48.738;9.226;2023-06-22T10:53:10;7.97;;;7.17;;
1378;SDS011;683;48.738;9.226;2023-06-22T10:55:38;15.63;;;7.07;;
1378;SDS011;683;48.738;9.226;2023-06-22T10:58:05;8.17;;;7.33;;
1378;SDS011;683;48.738;9.226;2023-06-22T11:00:33;9.40;;;7.70;;
1378;SDS011;683;48.738;9.226;2023-06-22T11:03:01;9.97;;;7.33;;
1378;SDS011;683;48.738;9.226;2023-06-22T11:05:28;9.60;;;7.67;;
1378;SDS011;683;48.738;9.226;2023-06-22T11:07:56;11.40;;;8.13;;
1378;SDS011;683;48.738;9.226;2023-06-22T11:10:24;7.90;;;7.10;;
1378;SDS011;683;48.738;9.226;2023-06-22T11:12:52;14.10;;;8.20;;
1378;SDS011;683;48.738;9.226;2023-06-22T11:15:21;8.23;;;7.23;;
1378;SDS011;683;48.738;9.226;2023-06-22T11:17:48;11.90;;;8.17;;
1378;SDS011;683;48.738;9.226;2023-06-22T11:20:16;14.93;;;8.20;;
1378;SDS011;683;48.738;9.226;2023-06-22T11:22:43;8.20;;;6.43;;
1378;SDS011;683;48.738;9.226;2023-06-22T11:25:11;10.00;;;8.10;;
1378;SDS011;683;48.738;9.226;2023-06-22T11:27:40;9.77;;;7.80;;
1378;SDS011;683;48.738;9.226;2023-06-22T11:30:08;9.60;;;8.10;;
1378;SDS011;683;48.738;9.226;2023-06-22T11:32:35;9.47;;;7.87;;
1378;SDS011;683;48.738;9.226;2023-06-22T11:35:03;12.80;;;8.50;;
1378;SDS011;683;48.738;9.226;2023-06-22T11:37:31;11.17;;;7.63;;
1378;SDS011;683;48.738;9.226;2023-06-22T11:39:58;10.00;;;7.50;;
1378;SDS011;683;48.738;9.226;2023-06-22T11:42:26;8.10;;;7.30;;
1378;SDS011;683;48.738;9.226;2023-06-22T11:44:55;10.30;;;7.50;;
1378;SDS011;683;48.738;9.226;2023-06-22T11:47:23;10.70;;;7.77;;
1378;SDS011;683;48.738;9.226;2023-06-22T11:49:50;9.20;;;7.50;;
1378;SDS011;683;48.738;9.226;2023-06-22T11:52:18;8.43;;;7.20;;
1378;SDS011;683;48.738;9.226;2023-06-22T11:54:46;13.23;;;6.80;;
1378;SDS011;683;48.738;9.226;2023-06-22T11:57:13;11.13;;;7.40;;
1378;SDS011;683;48.738;9.226;2023-06-22T11:59:41;10.67;;;7.00;;
1378;SDS011;683;48.738;9.226;2023-06-22T12:02:10;11.67;;;7.33;;
1378;SDS011;683;48.738;9.226;2023-06-22T12:04:38;10.80;;;7.97;;
1378;SDS011;683;48.738;9.226;2023-06-22T12:07:05;10.40;;;8.30;;
1378;SDS011;683;48.738;9.226;2023-06-22T12:09:33;12.60;;;7.47;;
1378;SDS011;683;48.738;9.226;2023-06-22T12:12:00;10.00;;;6.70;;
1378;SDS011;683;48.738;9.226;2023-06-22T12:14:28;11.10;;;7.97;;
1378;SDS011;683;48.738;9.226;2023-06-22T12:16:56;11.40;;;7.37;;
1378;SDS011;683;48.738;9.226;2023-06-22T12:19:25;12.10;;;7.47;;
1378;SDS011;683;48.738;9.226;2023-06-22T12:21:52;20.13;;;8.53;;
1378;SDS011;683;48.738;9.226;2023-06-22T12:24:20;11.93;;;7.97;;
1378;SDS011;683;48.738;9.226;2023-06-22T12:26:48;12.73;;;8.57;;
1378;SDS011;683;48.738;9.226;2023-06-22T12:29:16;8.57;;;7.67;;
1378;SDS011;683;48.738;9.226;2023-06-22T12:31:43;12.40;;;8.60;;
1378;SDS011;683;48.738;9.226;2023-06-22T12:34:11;9.87;;;7.40;;
1378;SDS011;683;48.738;9.226;2023-06-22T12:36:40;9.90;;;8.40;;
1378;SDS011;683;48.738;9.226;2023-06-22T12:39:07;14.63;;;7.93;;
1378;SDS011;683;48.738;9.226;2023-06-22T12:41:35;9.90;;;7.93;;
1378;SDS011;683;48.738;9.226;2023-06-22T12:44:02;9.97;;;7.60;;
1378;SDS011;683;48.738;9.226;2023-06-22T12:46:30;9.20;;;8.20;;
1378;SDS011;683;48.738;9.226;2023-06-22T12:49:03;14.47;;;8.40;;
1378;SDS011;683;48.738;9.226;2023-06-22T12:51:31;9.60;;;7.87;;
1378;SDS011;683;48.738;9.226;2023-06-22T12:54:00;12.23;;;7.60;;
1378;SDS011;683;48.738;9.226;2023-06-22T12:56:28;8.50;;;7.27;;
1378;SDS011;683;48.738;9.226;2023-06-22T12:58:56;8.37;;;7.30;;
1378;SDS011;683;48.738;9.226;2023-06-22T13:01:25;11.23;;;8.10;;
1378;SDS011;683;48.738;9.226;2023-06-22T13:03:52;8.10;;;7.40;;
1378;SDS011;683;48.738;9.226;2023-06-22T13:06:20;8.90;;;7.63;;
1378;SDS011;683;48.738;9.226;2023-06-22T13:08:48;13.33;;;8.43;;
1378;SDS011;683;48.738;9.226;2023-06-22T13:11:17;10.30;;;6.83;;
1378;SDS011;683;48.738;9.226;2023-06-22T13:13:46;16.07;;;8.73;;
1378;SDS011;683;48.738;9.226;2023-06-22T13:16:14;11.77;;;7.40;;
1378;SDS011;683;48.738;9.226;2023-06-22T13:18:42;10.40;;;8.10;;
1378;SDS011;683;48.738;9.226;2023-06-22T13:21:09;15.53;;;7.87;;
1378;SDS011;683;48.738;9.226;2023-06-22T13:23:37;12.97;;;7.80;;
1378;SDS011;683;48.738;9.226;2023-06-22T13:26:04;14.77;;;8.00;;
1378;SDS011;683;48.738;9.226;2023-06-22T13:28:33;9.87;;;6.77;;
1378;SDS011;683;48.738;9.226;2023-06-22T13:31:01;16.37;;;7.47;;
1378;SDS011;683;48.738;9.226;2023-06-22T13:33:29;9.53;;;7.70;;
1378;SDS011;683;48.738;9.226;2023-06-22T13:35:56;13.60;;;6.93;;
1378;SDS011;683;48.738;9.226;2023-06-22T13:38:24;14.83;;;7.80;;
1378;SDS011;683;48.738;9.226;2023-06-22T13:40:52;8.43;;;7.07;;
1378;SDS011;683;48.738;9.226;2023-06-22T13:43:21;12.07;;;7.77;;
1378;SDS011;683;48.738;9.226;2023-06-22T13:45:50;11.47;;;6.83;;
1378;SDS011;683;48.738;9.226;2023-06-22T13:48:18;10.87;;;7.83;;
1378;SDS011;683;48.738;9.226;2023-06-22T13:50:45;8.03;;;6.73;;
1378;SDS011;683;48.738;9.226;2023-06-22T13:53:13;12.33;;;6.97;;
1378;SDS011;683;48.738;9.226;2023-06-22T13:55:41;14.70;;;7.90;;
1378;SDS011;683;48.738;9.226;2023-06-22T13:58:08;9.10;;;7.20;;
1378;SDS011;683;48.738;9.226;2023-06-22T14:00:36;10.83;;;6.97;;
1378;SDS011;683;48.738;9.226;2023-06-22T14:03:05;7.30;;;6.60;;
1378;SDS011;683;48.738;9.226;2023-06-22T14:05:32;13.87;;;7.23;;
1378;SDS011;683;48.738;9.226;2023-06-22T14:08:00;12.60;;;7.53;;
1378;SDS011;683;48.738;9.226;2023-06-22T14:10:27;11.87;;;6.70;;
1378;SDS011;683;48.738;9.226;2023-06-22T14:12:55;9.30;;;7.03;;
1378;SDS011;683;48.738;9.226;2023-06-22T14:15:22;7.53;;;6.67;;
1378;SDS011;683;48.738;9.226;2023-06-22T14:17:50;7.50;;;6.40;;
1378;SDS011;683;48.738;9.226;2023-06-22T14:20:19;10.73;;;6.27;;
1378;SDS011;683;48.738;9.226;2023-06-22T14:22:47;10.40;;;6.10;;
1378;SDS011;683;48.738;9.226;2023-06-22T14:25:14;8.27;;;5.60;;
1378;SDS011;683;48.738;9.226;2023-06-22T14:27:42;13.00;;;7.07;;
1378;SDS011;683;48.738;9.226;2023-06-22T14:30:10;10.70;;;6.47;;
1378;SDS011;683;48.738;9.226;2023-06-22T14:32:37;9.17;;;6.40;;
1378;SDS011;683;48.738;9.226;2023-06-22T14:35:05;14.97;;;6.60;;
1378;SDS011;683;48.738;9.226;2023-06-22T14:37:34;14.97;;;6.93;;
1378;SDS011;683;48.738;9.226;2023-06-22T14:40:02;11.93;;;5.43;;
1378;SDS011;683;48.738;9.226;2023-06-22T14:42:30;9.83;;;5.93;;
1378;SDS011;683;48.738;9.226;2023-06-22T14:44:58;11.87;;;6.00;;
1378;SDS011;683;48.738;9.226;2023-06-22T14:47:25;12.17;;;5.27;;
1378;SDS011;683;48.738;9.226;2023-06-22T14:49:54;9.87;;;5.17;;
1378;SDS011;683;48.738;9.226;2023-06-22T14:52:21;10.80;;;6.37;;
1378;SDS011;683;48.738;9.226;2023-06-22T14:54:50;9.70;;;4.90;;
1378;SDS011;683;48.738;9.226;2023-06-22T14:57:18;7.63;;;4.73;;
1378;SDS011;683;48.738;9.226;2023-06-22T14:59:48;9.97;;;4.60;;
1378;SDS011;683;48.738;9.226;2023-06-22T15:02:16;9.00;;;5.13;;
1378;SDS011;683;48.738;9.226;2023-06-22T15:04:44;8.07;;;4.53;;
1378;SDS011;683;48.738;9.226;2023-06-22T15:07:12;9.13;;;4.83;;
1378;SDS011;683;48.738;9.226;2023-06-22T15:09:39;9.37;;;4.37;;
1378;SDS011;683;48.738;9.226;2023-06-22T15:12:09;9.60;;;4.90;;
1378;SDS011;683;48.738;9.226;2023-06-22T15:14:38;13.90;;;4.73;;
1378;SDS011;683;48.738;9.226;2023-06-22T15:17:06;10.60;;;4.43;;
1378;SDS011;683;48.738;9.226;2023-06-22T15:19:34;8.53;;;4.10;;
1378;SDS011;683;48.738;9.226;2023-06-22T15:22:03;8.27;;;4.20;;
1378;SDS011;683;48.738;9.226;2023-06-22T15:24:32;10.13;;;4.87;;
1378;SDS011;683;48.738;9.226;2023-06-22T15:26:59;10.70;;;4.77;;